KHMN/HMN METAR and TAF weather

Enter ICAO airport designator
Station Type Date Time Source
KHMN METAR 2019/12/08 16:58 UTC NOAA

KHMN 081658Z AUTO 14004KT 10SM OVC130 12/06 A3008 RMK AO2 SLPNO T01230055 $


Station Type Date Time Source
KHMN Decoded METAR 2019/12/08 16:58 UTC NOAA

Holloman Air Force Base, NM, United States (KHMN) 32-51N 106-06W 1248M
Dec 08, 2019 - 11:58 AM EST / 2019.12.08 1658 UTC
Wind: from the SE (140 degrees) at 5 MPH (4 KT):0
Visibility: 10 mile(s):0
Sky conditions: overcast
Temperature: 54.1 F (12.3 C)
Dew Point: 41.9 F (5.5 C)
Relative Humidity: 63%
Pressure (altimeter): 30.08 in. Hg (1018 hPa)
ob: KHMN 081658Z AUTO 14004KT 10SM OVC130 12/06 A3008 RMK AO2 SLPNO T01230055
cycle: 17

Station Type Date Time Source
KHMN TAF 2019/12/06 23:57 UTC NOAA

TAF TAF
AMD KHMN 062350Z 0623/0723 VRB06KT 9999 BKN250 QNH3028INS
BECMG 0712/0713 VRB06KT 9999 FEW250 QNH3017INS TX16/0623Z TN01/0714Z LAST NO
AMDS AFT 0700 NEXT 0909

Example: see airport list